createdAt,value
2022-08-14T00:03:40.680Z,66332.53
2022-08-14T00:08:55.458Z,66330.72
2022-08-14T00:11:26.543Z,66327.19
2022-08-14T00:13:57.918Z,66328.31
2022-08-14T00:16:41.320Z,66328.31
2022-08-14T00:19:19.068Z,66316.75
2022-08-14T00:21:47.947Z,66312.50
2022-08-14T00:24:28.466Z,66306.34
2022-08-14T00:26:57.015Z,66296.59
2022-08-14T00:29:25.585Z,66293.25
2022-08-14T00:31:56.477Z,66290.72
2022-08-14T00:34:35.247Z,66283.78
2022-08-14T00:37:05.570Z,66287.69
2022-08-14T00:39:33.153Z,66285.44
2022-08-14T00:42:01.029Z,66281.53
2022-08-14T00:44:32.636Z,66270.91
2022-08-14T00:47:10.586Z,66269.09
2022-08-14T00:49:42.616Z,66258.84
2022-08-14T00:52:17.709Z,66249.91
2022-08-14T00:54:47.169Z,66230.13
2022-08-14T00:57:13.894Z,66234.56
2022-08-14T00:59:41.238Z,66230.13
2022-08-14T01:02:09.522Z,66237.06
2022-08-14T01:04:38.360Z,66227.16
2022-08-14T01:07:20.861Z,66215.75
2022-08-14T01:09:50.435Z,66216.38
2022-08-14T01:12:26.743Z,66215.03
2022-08-14T01:14:58.542Z,66212.97
2022-08-14T01:17:49.234Z,66211.69
2022-08-14T01:20:35.977Z,66207.94
2022-08-14T01:23:18.894Z,66204.25
2022-08-14T01:25:51.118Z,66201.25
2022-08-14T01:28:46.770Z,66205.94
2022-08-14T01:31:09.003Z,66190.41
2022-08-14T01:35:15.831Z,66199.09
2022-08-14T01:36:27.967Z,66198.69
2022-08-14T01:38:58.893Z,66182.66
2022-08-14T01:41:29.977Z,66178.59
2022-08-14T01:44:01.499Z,66175.97
2022-08-14T01:46:33.455Z,66175.00
2022-08-14T01:49:15.250Z,66186.63
2022-08-14T01:51:44.377Z,66172.13
2022-08-14T01:54:22.001Z,66164.81
2022-08-14T01:56:55.823Z,66161.03
2022-08-14T01:59:37.866Z,66165.75
2022-08-14T02:02:19.779Z,66155.84
2022-08-14T02:04:55.126Z,66155.84
2022-08-14T02:07:34.235Z,66146.91
2022-08-14T02:10:13.158Z,66140.38
2022-08-14T02:12:42.108Z,66136.31
2022-08-14T02:15:09.279Z,66137.97
2022-08-14T02:17:35.769Z,66140.44
2022-08-14T02:20:02.945Z,66141.00
2022-08-14T02:22:33.370Z,66133.03
2022-08-14T02:25:01.279Z,66124.81
2022-08-14T02:28:22.426Z,66127.59
2022-08-14T02:30:15.949Z,66118.69
2022-08-14T02:32:43.199Z,66117.56
2022-08-14T02:35:17.738Z,66110.09
2022-08-14T02:37:49.597Z,66110.31
2022-08-14T02:42:55.327Z,66100.44
2022-08-14T02:45:33.009Z,66089.84
2022-08-14T02:48:10.165Z,66079.56
2022-08-14T02:50:53.539Z,66081.06
2022-08-14T02:53:20.083Z,66074.38
2022-08-14T02:55:46.776Z,66072.16
2022-08-14T02:58:13.191Z,66075.16
2022-08-14T03:00:55.853Z,66072.94
2022-08-14T03:03:24.718Z,66069.34
2022-08-14T03:05:52.754Z,66070.47
2022-08-14T03:08:21.387Z,66068.25
2022-08-14T03:10:49.545Z,66067.28
2022-08-14T03:13:20.909Z,66072.53
2022-08-14T03:15:56.111Z,66069.34
2022-08-14T03:18:31.372Z,66072.72
2022-08-14T03:21:04.291Z,66076.44
2022-08-14T03:23:38.050Z,66072.88
2022-08-14T03:26:07.807Z,66075.09
2022-08-14T03:28:34.496Z,66081.31
2022-08-14T03:31:04.198Z,66071.59
2022-08-14T03:33:40.763Z,66072.94
2022-08-14T03:37:38.706Z,66052.59
2022-08-14T03:39:13.317Z,66043.53
2022-08-14T03:41:45.095Z,66032.53
2022-08-14T03:45:25.467Z,66027.09
2022-08-14T03:46:57.965Z,66028.88
2022-08-14T03:49:29.198Z,66022.88
2022-08-14T03:52:04.631Z,66016.19
2022-08-14T03:54:35.642Z,66017.53
2022-08-14T03:57:03.398Z,66010.28
2022-08-14T03:59:34.037Z,65994.78
2022-08-14T04:02:04.439Z,65986.25
2022-08-14T04:04:31.835Z,65973.66
2022-08-14T04:07:00.726Z,65969.19
2022-08-14T04:09:27.650Z,65965.47
2022-08-14T04:11:54.619Z,65961.75
2022-08-14T04:14:23.633Z,65964.72
2022-08-14T04:16:50.581Z,65958.38
2022-08-14T04:19:19.239Z,65945.78
2022-08-14T04:22:02.186Z,65926.03
2022-08-14T04:24:38.542Z,65925.72
2022-08-14T04:27:13.243Z,65917.13
2022-08-14T04:29:45.082Z,65913.97
2022-08-14T04:33:02.022Z,65917.69
2022-08-14T04:35:00.029Z,65921.41
2022-08-14T04:40:40.236Z,65928.88
2022-08-14T04:43:46.008Z,65921.97
2022-08-14T04:46:55.877Z,65921.63
2022-08-14T04:49:08.035Z,65915.53
2022-08-14T04:51:37.467Z,65910.66
2022-08-14T04:54:12.931Z,65907.50
2022-08-14T04:56:39.701Z,65900.97
2022-08-14T04:59:10.338Z,65915.19
2022-08-14T05:01:40.232Z,65920.03
2022-08-14T05:04:08.639Z,65913.22
2022-08-14T05:06:40.993Z,65926.81
2022-08-14T05:09:11.622Z,65937.19
2022-08-14T05:11:40.729Z,65948.75
2022-08-14T05:14:33.128Z,65955.03
2022-08-14T05:16:53.899Z,65977.34
2022-08-14T05:19:29.189Z,65984.97
2022-08-14T05:22:15.597Z,65982.91
2022-08-14T05:24:45.125Z,65996.84
2022-08-14T05:27:11.663Z,66005.19
2022-08-14T05:29:38.105Z,66010.38
2022-08-14T05:32:07.693Z,66025.28
2022-08-14T05:37:02.899Z,66035.88
2022-08-14T05:39:31.325Z,66044.47
2022-08-14T05:41:58.321Z,66052.28
2022-08-14T05:44:29.700Z,66064.00
2022-08-14T05:46:57.289Z,66066.72
2022-08-14T05:52:01.601Z,66100.59
2022-08-14T05:54:35.275Z,66108.66
2022-08-14T05:57:06.090Z,66116.78
2022-08-14T05:59:39.260Z,66130.56
2022-08-14T06:02:10.169Z,66143.97
2022-08-14T06:04:37.182Z,66151.38
2022-08-14T06:12:03.198Z,66178.03
2022-08-14T06:14:31.152Z,66187.66
2022-08-14T06:16:57.560Z,66198.84
2022-08-14T06:19:24.107Z,66202.75
2022-08-14T06:21:58.153Z,66210.00
2022-08-14T06:26:56.609Z,66235.31
2022-08-14T06:29:32.227Z,66244.25
2022-08-14T06:32:38.191Z,66256.56
2022-08-14T06:35:09.214Z,66270.22
2022-08-14T06:40:27.017Z,66288.41
2022-08-14T06:42:56.534Z,66301.09
2022-08-14T06:45:26.180Z,66306.84
2022-08-14T06:50:27.926Z,66333.09
2022-08-14T06:52:55.603Z,66356.44
2022-08-14T06:55:25.962Z,66371.53
2022-08-14T06:57:54.482Z,66386.06
2022-08-14T07:00:26.653Z,66396.13
2022-08-14T07:03:13.124Z,66405.25
2022-08-14T07:05:54.973Z,66414.75
2022-08-14T07:08:28.724Z,66428.00
2022-08-14T07:11:00.645Z,66438.25
2022-08-14T07:13:28.242Z,66445.53
2022-08-14T07:15:58.533Z,66458.41
2022-08-14T07:18:33.596Z,66471.13
2022-08-14T07:21:01.523Z,66477.44
2022-08-14T07:25:59.299Z,66517.81
2022-08-14T07:36:27.189Z,66517.00
2022-08-14T07:39:00.526Z,66518.84
2022-08-14T07:41:33.855Z,66533.81
2022-08-14T07:44:29.077Z,66548.53
2022-08-14T07:46:49.720Z,66559.97
2022-08-14T07:49:17.878Z,66565.88
2022-08-14T07:51:45.326Z,66573.72
2022-08-14T07:59:18.249Z,66597.81
2022-08-14T08:04:24.201Z,66615.00
2022-08-14T08:06:52.526Z,66622.31
2022-08-14T08:09:25.070Z,66631.28
2022-08-14T08:14:26.161Z,66653.69
2022-08-14T08:19:22.633Z,66667.69
2022-08-14T08:21:49.138Z,66663.94
2022-08-14T08:24:18.391Z,66674.44
2022-08-14T08:26:46.172Z,66674.56
2022-08-14T08:29:20.220Z,66685.06
2022-08-14T08:31:52.465Z,66696.28
2022-08-14T08:34:20.784Z,66699.09
2022-08-14T08:36:51.472Z,66708.63
2022-08-14T08:39:22.692Z,66733.84
2022-08-14T08:41:53.207Z,66730.63
2022-08-14T08:44:31.904Z,66732.31
2022-08-14T08:47:05.127Z,66745.22
2022-08-14T08:49:48.698Z,66765.38
2022-08-14T08:52:30.901Z,66765.81
2022-08-14T08:57:26.055Z,66793.31
2022-08-14T09:02:25.992Z,66805.69
2022-08-14T09:05:01.946Z,66828.66
2022-08-14T09:07:28.627Z,66835.25
2022-08-14T09:09:59.379Z,66831.31
2022-08-14T09:14:53.905Z,66831.59
2022-08-14T09:17:20.666Z,66823.59
2022-08-14T09:19:53.643Z,66824.72
2022-08-14T09:22:35.580Z,66832.16
2022-08-14T09:25:07.286Z,66837.63
2022-08-14T09:27:34.889Z,66839.88
2022-08-14T09:30:01.886Z,66855.59
2022-08-14T09:33:09.104Z,66864.59
2022-08-14T09:38:27.279Z,66878.03
2022-08-14T09:42:21.919Z,66880.84
2022-08-14T09:46:55.802Z,66879.75
2022-08-14T09:49:40.061Z,66881.97
2022-08-14T09:52:32.850Z,66876.53
2022-08-14T09:54:59.819Z,66893.75
2022-08-14T09:57:30.854Z,66906.66
2022-08-14T09:59:58.328Z,66907.38
2022-08-14T10:02:31.258Z,66916.94
2022-08-14T10:05:09.946Z,66913.97
2022-08-14T10:12:50.060Z,66920.28
2022-08-14T10:15:22.001Z,66927.44
2022-08-14T10:17:53.261Z,66936.44
2022-08-14T10:20:39.656Z,66922.53
2022-08-14T10:23:18.760Z,66925.03
2022-08-14T10:25:50.518Z,66919.59
2022-08-14T10:28:39.389Z,66929.13
2022-08-14T10:31:44.446Z,66936.03
2022-08-14T10:34:18.280Z,66930.38
2022-08-14T10:39:23.495Z,66953.28
2022-08-14T10:42:05.275Z,66958.91
2022-08-14T10:44:52.382Z,66968.16
2022-08-14T10:47:39.282Z,66957.78
2022-08-14T10:50:07.598Z,66952.16
2022-08-14T10:52:35.543Z,66960.16
2022-08-14T10:55:08.109Z,66964.13
2022-08-14T10:57:36.091Z,66973.66
2022-08-14T11:00:20.638Z,66991.47
2022-08-14T11:05:26.654Z,66990.34
2022-08-14T11:10:27.906Z,66991.06
2022-08-14T11:12:57.059Z,66986.00
2022-08-14T11:15:27.014Z,66990.50
2022-08-14T11:17:56.431Z,67011.16
2022-08-14T11:20:32.077Z,67005.09
2022-08-14T11:25:44.036Z,67013.00
2022-08-14T11:28:46.345Z,67025.75
2022-08-14T11:31:11.091Z,67034.19
2022-08-14T11:33:38.727Z,67033.06
2022-08-14T11:36:18.447Z,67027.44
2022-08-14T11:38:46.149Z,67041.63
2022-08-14T11:41:14.567Z,67062.84
2022-08-14T11:43:57.905Z,67067.50
2022-08-14T11:46:29.566Z,67069.16
2022-08-14T11:49:01.877Z,67079.31
2022-08-14T11:54:19.335Z,67091.13
2022-08-14T11:56:49.713Z,67090.56
2022-08-14T12:04:31.727Z,67074.63
2022-08-14T12:11:58.547Z,67083.25
2022-08-14T12:17:12.146Z,67084.38
2022-08-14T12:19:56.704Z,67076.91
2022-08-14T12:25:21.555Z,67068.06
2022-08-14T12:27:54.763Z,67081.41
2022-08-14T12:30:39.483Z,67100.09
2022-08-14T12:38:36.025Z,67087.59
2022-08-14T12:41:06.325Z,67079.72
2022-08-14T12:43:55.482Z,67082.53
2022-08-14T12:46:46.588Z,67083.25
2022-08-14T12:49:18.672Z,67093.91
2022-08-14T12:51:57.437Z,67110.63
2022-08-14T12:54:28.035Z,67133.53
2022-08-14T12:57:17.309Z,67156.78
2022-08-14T12:59:45.539Z,67159.16
2022-08-14T13:02:26.083Z,67165.75
2022-08-14T13:04:55.635Z,67178.13
2022-08-14T13:07:22.879Z,67160.84
2022-08-14T13:12:31.934Z,67125.66
2022-08-14T13:17:42.830Z,67100.09
2022-08-14T13:20:24.447Z,67102.22
2022-08-14T13:22:52.854Z,67111.75
2022-08-14T13:25:27.188Z,67118.50
2022-08-14T13:27:57.711Z,67138.75
2022-08-14T13:30:25.729Z,67151.69
2022-08-14T13:32:54.397Z,67149.03
2022-08-14T13:37:52.163Z,67159.00
2022-08-14T13:42:48.478Z,67151.84
2022-08-14T13:45:22.057Z,67152.81
2022-08-14T13:52:54.833Z,67168.72
2022-08-14T13:58:03.658Z,67195.00
2022-08-14T14:03:08.701Z,67197.94
2022-08-14T14:08:43.589Z,67191.06
2022-08-14T14:16:15.501Z,67184.31
2022-08-14T14:23:49.121Z,67153.38
2022-08-14T14:26:23.218Z,67147.34
2022-08-14T14:28:55.219Z,67151.13
2022-08-14T14:31:30.306Z,67148.47
2022-08-14T14:34:07.386Z,67156.91
2022-08-14T14:36:43.874Z,67186.72
2022-08-14T14:39:11.000Z,67201.19
2022-08-14T14:49:14.379Z,67220.22
2022-08-14T14:54:10.248Z,67230.03
2022-08-14T14:59:19.789Z,67229.34
2022-08-14T15:01:51.036Z,67224.44
2022-08-14T15:09:17.566Z,67216.94
2022-08-14T15:14:55.011Z,67226.09
2022-08-14T15:16:59.025Z,67214.81
2022-08-14T15:19:26.709Z,67212.44
2022-08-14T15:21:53.957Z,67209.22
2022-08-14T15:24:26.572Z,67205.81
2022-08-14T15:26:53.610Z,67201.34
2022-08-14T15:29:19.989Z,67213.56
2022-08-14T15:34:45.382Z,67224.44
2022-08-14T15:37:02.215Z,67223.56
2022-08-14T15:39:34.040Z,67214.81
2022-08-14T15:42:04.171Z,67219.91
2022-08-14T15:49:58.382Z,67218.78
2022-08-14T15:52:32.756Z,67222.03
2022-08-14T15:55:12.891Z,67217.66
2022-08-14T16:00:49.438Z,67218.22
2022-08-14T16:03:17.999Z,67221.59
2022-08-14T16:05:45.828Z,67219.78
2022-08-14T16:08:27.063Z,67212.44
2022-08-14T16:13:41.647Z,67217.50
2022-08-14T16:21:40.074Z,67202.88
2022-08-14T16:24:08.203Z,67198.81
2022-08-14T16:27:00.757Z,67191.06
2022-08-14T16:29:29.010Z,67182.63
2022-08-14T16:37:12.518Z,67160.13
2022-08-14T16:39:41.714Z,67147.34
2022-08-14T16:44:58.119Z,67134.81
2022-08-14T16:55:22.288Z,67126.38
2022-08-14T17:03:11.700Z,67123.41
2022-08-14T17:05:43.350Z,67118.09
2022-08-14T17:13:47.520Z,67108.97
2022-08-14T17:16:24.981Z,67098.81
2022-08-14T17:19:00.095Z,67094.47
2022-08-14T17:21:37.920Z,67102.78
2022-08-14T17:24:57.595Z,67102.34
2022-08-14T17:26:57.264Z,67093.34
2022-08-14T17:32:21.987Z,67095.31
2022-08-14T17:37:35.493Z,67087.03
2022-08-14T17:42:45.461Z,67082.13
2022-08-14T17:45:41.811Z,67082.13
2022-08-14T17:49:15.913Z,67076.47
2022-08-14T17:51:14.394Z,67080.28
2022-08-14T17:56:31.819Z,67075.19
2022-08-14T17:59:05.337Z,67070.28
2022-08-14T18:09:56.941Z,67055.97
2022-08-14T18:12:41.121Z,67060.59
2022-08-14T18:17:52.696Z,67053.16
2022-08-14T18:21:41.151Z,67041.63
2022-08-14T18:25:47.077Z,67033.06
2022-08-14T18:30:58.305Z,67022.41
2022-08-14T18:33:25.945Z,67015.78
2022-08-14T18:35:58.637Z,66985.44
2022-08-14T18:38:46.506Z,66969.72
2022-08-14T18:41:36.433Z,66955.13
2022-08-14T18:44:10.462Z,66935.88
2022-08-14T18:49:33.674Z,66937.56
2022-08-14T18:52:13.214Z,66922.94
2022-08-14T18:54:48.505Z,66927.72
2022-08-14T18:57:15.260Z,66903.88
2022-08-14T18:59:46.675Z,66892.06
2022-08-14T19:02:30.717Z,66881.97
2022-08-14T19:05:02.699Z,66876.91
2022-08-14T19:10:10.155Z,66858.97
2022-08-14T19:12:52.744Z,66850.66
2022-08-14T19:15:25.697Z,66851.66
2022-08-14T19:18:14.212Z,66847.72
2022-08-14T19:20:53.920Z,66849.97
2022-08-14T19:23:42.330Z,66852.06
2022-08-14T19:26:36.632Z,66844.34
2022-08-14T19:29:38.379Z,66839.28
2022-08-14T19:32:39.651Z,66822.47
2022-08-14T19:35:49.025Z,66797.22
2022-08-14T19:38:45.004Z,66780.38
2022-08-14T19:41:16.187Z,66776.31
2022-08-14T19:43:55.704Z,66765.81
2022-08-14T19:46:38.904Z,66760.91
2022-08-14T19:49:23.074Z,66764.38
2022-08-14T19:52:20.804Z,66765.81
2022-08-14T19:54:50.569Z,66769.19
2022-08-14T19:57:19.069Z,66775.50
2022-08-14T19:59:57.790Z,66789.94
2022-08-14T20:02:30.010Z,66782.09
2022-08-14T20:05:02.995Z,66768.03
2022-08-14T20:09:05.719Z,66768.03
2022-08-14T20:11:07.901Z,66766.53
2022-08-14T20:13:32.659Z,66767.34
2022-08-14T20:16:12.133Z,66763.41
2022-08-14T20:18:48.979Z,66754.75
2022-08-14T20:26:32.017Z,66745.22
2022-08-14T20:29:05.146Z,66746.19
2022-08-14T20:31:37.290Z,66748.13
2022-08-14T20:34:07.691Z,66742.13
2022-08-14T20:41:44.415Z,66722.22
2022-08-14T20:44:41.087Z,66714.94
2022-08-14T20:47:13.323Z,66708.06
2022-08-14T20:49:41.341Z,66705.81
2022-08-14T20:52:19.115Z,66703.03
2022-08-14T20:54:50.249Z,66696.44
2022-08-14T20:57:18.720Z,66695.16
2022-08-14T20:59:52.893Z,66686.75
2022-08-14T21:02:50.841Z,66685.31
2022-08-14T21:05:21.754Z,66676.09
2022-08-14T21:07:50.932Z,66669.38
2022-08-14T21:10:35.974Z,66666.72
2022-08-14T21:16:05.495Z,66655.22
2022-08-14T21:18:55.364Z,66639.13
2022-08-14T21:21:41.765Z,66635.75
2022-08-14T21:24:38.415Z,66629.75
2022-08-14T21:27:00.343Z,66625.09
2022-08-14T21:29:31.233Z,66617.09
2022-08-14T21:31:57.592Z,66608.16
2022-08-14T21:34:30.970Z,66594.28
2022-08-14T21:37:07.732Z,66592.59
2022-08-14T21:39:35.692Z,66581.25
2022-08-14T21:42:02.497Z,66575.50
2022-08-14T21:47:12.802Z,66558.03
2022-08-14T21:49:40.220Z,66559.56
2022-08-14T21:52:49.187Z,66561.81
2022-08-14T21:55:09.320Z,66568.53
2022-08-14T21:58:44.722Z,66567.09
2022-08-14T22:00:35.240Z,66558.47
2022-08-14T22:03:06.229Z,66548.78
2022-08-14T22:05:37.432Z,66534.75
2022-08-14T22:08:06.409Z,66515.88
2022-08-14T22:10:34.377Z,66515.31
2022-08-14T22:13:01.806Z,66505.97
2022-08-14T22:25:32.967Z,66515.88
2022-08-14T22:30:26.840Z,66511.97
2022-08-14T22:32:57.414Z,66513.78
2022-08-14T22:35:26.457Z,66525.09
2022-08-14T22:38:34.765Z,66518.53
2022-08-14T22:41:02.544Z,66512.53
2022-08-14T22:43:31.730Z,66510.28
2022-08-14T22:55:52.038Z,66469.44
2022-08-14T22:58:30.479Z,66465.66
2022-08-14T23:01:00.911Z,66463.28
2022-08-14T23:03:28.937Z,66461.75
2022-08-14T23:05:55.526Z,66454.50
2022-08-14T23:11:10.373Z,66443.34
2022-08-14T23:13:38.994Z,66436.81
2022-08-14T23:16:06.435Z,66433.22
2022-08-14T23:18:32.790Z,66431.38
2022-08-14T23:20:59.219Z,66425.78
2022-08-14T23:23:27.217Z,66425.63
2022-08-14T23:26:00.092Z,66416.44
2022-08-14T23:28:58.262Z,66412.22
2022-08-14T23:31:34.516Z,66402.28
2022-08-14T23:34:06.620Z,66397.44
2022-08-14T23:36:37.976Z,66399.91
2022-08-14T23:41:56.566Z,66389.97
2022-08-14T23:44:23.613Z,66389.84
2022-08-14T23:46:57.139Z,66386.78
2022-08-14T23:49:41.245Z,66382.31
2022-08-14T23:52:50.374Z,66380.06
2022-08-14T23:55:05.452Z,66377.53
2022-08-14T23:57:31.885Z,66364.69
2022-08-14T23:59:59.438Z,66349.16
